CheckWX is a tool to help pilots better visualize weather data.  It is not intended as a substitute for an official pre-flight weather briefing.

21:11:11 UTC

KIPT METAR
Williamsport Regional Airport
Williamsport, Pennsylvania, USA
Current

17 mins ago

KIPT 182054Z 30012KT 10SM OVC042 00/M07 A3010 RMK AO2 SLP199 60000 T00001072 53042
Observed
Feb-18 @ 20:54 UTC
Wind
  • 300° at 12 KTS
Visibility
10 SM
Flight Rules
VFR
Cloud Levels
  • Overcast at 4,200' AGL
Temperature
C / 32°F
Dewpoint
-7°C / 19°F
Humidity
60%
Altimeter
30.1" Hg
Pressure
1019.9 hPa
Previous

1 hour ago

KIPT 181954Z 30014G17KT 10SM BKN039 OVC085 00/M07 A3005 RMK AO2 SNE27 SLP182 P0000 T00001067
Observed
Feb-18 @ 19:54 UTC
Wind
  • 300° at 14 KTS
  • Gusting to 17 KTS
Visibility
10 SM
Flight Rules
VFR
Cloud Levels
  • Broken at 3,900' AGL
  • Overcast at 8,500' AGL
Temperature
C / 32°F
Dewpoint
-7°C / 19°F
Humidity
60%
Altimeter
30.05" Hg
Pressure
1018.2 hPa
Current Rain
0.01"
Previous

2 hours ago

KIPT 181854Z 30011G21KT 9SM -SN OVC036 01/M06 A3002 RMK AO2 SLP172 P0000 T00061061
Observed
Feb-18 @ 18:54 UTC
Wind
  • 300° at 11 KTS
  • Gusting to 21 KTS
Visibility
9 SM
Flight Rules
VFR
Conditions
Light Snow
Cloud Levels
  • Overcast at 3,600' AGL
Temperature
C / 34°F
Dewpoint
-6°C / 21°F
Humidity
60%
Altimeter
30.02" Hg
Pressure
1017.2 hPa
Current Rain
0.01"